createdAt,value
2022-10-11T00:01:49.577Z,12.42
2022-10-11T00:04:26.019Z,12.29
2022-10-11T00:06:57.788Z,12.18
2022-10-11T00:09:29.798Z,12.50
2022-10-11T00:12:04.249Z,11.89
2022-10-11T00:14:37.066Z,11.69
2022-10-11T00:17:09.648Z,11.74
2022-10-11T00:19:41.609Z,11.99
2022-10-11T00:22:16.229Z,11.87
2022-10-11T00:24:48.336Z,11.48
2022-10-11T00:27:24.897Z,11.82
2022-10-11T00:29:57.387Z,11.52
2022-10-11T00:32:29.459Z,11.66
2022-10-11T00:35:05.105Z,11.55
2022-10-11T00:37:38.849Z,11.73
2022-10-11T00:40:17.618Z,11.67
2022-10-11T00:42:52.136Z,11.43
2022-10-11T00:46:03.098Z,11.41
2022-10-11T00:48:44.058Z,11.48
2022-10-11T00:51:23.809Z,11.47
2022-10-11T00:53:56.739Z,11.29
2022-10-11T00:56:37.368Z,11.38
2022-10-11T00:59:15.438Z,11.08
2022-10-11T01:01:47.808Z,11.05
2022-10-11T01:04:19.578Z,11.11
2022-10-11T01:06:53.649Z,10.80
2022-10-11T01:09:25.899Z,10.58
2022-10-11T01:12:04.156Z,10.62
2022-10-11T01:15:06.440Z,10.82
2022-10-11T01:17:53.557Z,11.02
2022-10-11T01:20:37.798Z,10.99
2022-10-11T01:23:53.336Z,10.62
2022-10-11T01:26:59.659Z,10.59
2022-10-11T01:29:49.698Z,10.99
2022-10-11T01:32:30.205Z,11.07
2022-10-11T01:35:08.836Z,11.04
2022-10-11T01:37:43.870Z,10.90
2022-10-11T01:40:22.337Z,10.59
2022-10-11T01:42:55.885Z,10.41
2022-10-11T01:45:28.648Z,10.57
2022-10-11T01:48:11.914Z,10.50
2022-10-11T01:50:48.299Z,10.74
2022-10-11T01:53:50.827Z,10.46
2022-10-11T01:56:33.988Z,9.96
2022-10-11T01:59:29.381Z,10.37
2022-10-11T02:02:13.806Z,10.67
2022-10-11T02:04:53.547Z,10.15
2022-10-11T02:07:30.888Z,10.06
2022-10-11T02:10:10.968Z,10.13
2022-10-11T02:12:48.728Z,10.09
2022-10-11T02:15:22.286Z,10.04
2022-10-11T02:17:59.536Z,9.97
2022-10-11T02:20:37.548Z,10.17
2022-10-11T02:23:13.867Z,10.20
2022-10-11T02:25:49.407Z,10.00
2022-10-11T02:28:26.800Z,9.96
2022-10-11T02:31:01.750Z,10.04
2022-10-11T02:33:40.736Z,10.17
2022-10-11T02:36:25.073Z,9.69
2022-10-11T02:39:01.321Z,9.78
2022-10-11T02:41:37.396Z,9.88
2022-10-11T02:44:14.187Z,9.80
2022-10-11T02:46:48.607Z,10.04
2022-10-11T02:49:21.800Z,9.95
2022-10-11T02:51:58.438Z,9.99
2022-10-11T02:54:30.767Z,10.10
2022-10-11T02:57:02.588Z,10.02
2022-10-11T02:59:34.661Z,9.79
2022-10-11T03:02:06.455Z,9.89
2022-10-11T03:04:38.606Z,9.70
2022-10-11T03:07:13.061Z,9.72
2022-10-11T03:09:47.399Z,9.67
2022-10-11T03:12:19.196Z,9.56
2022-10-11T03:14:51.256Z,9.63
2022-10-11T03:17:37.943Z,9.50
2022-10-11T03:20:16.227Z,9.45
2022-10-11T03:22:53.105Z,9.76
2022-10-11T03:25:25.126Z,9.70
2022-10-11T03:27:56.846Z,9.58
2022-10-11T03:30:29.136Z,9.43
2022-10-11T03:33:01.026Z,9.22
2022-10-11T03:35:35.470Z,9.11
2022-10-11T03:38:12.977Z,9.55
2022-10-11T03:40:46.097Z,9.40
2022-10-11T03:43:20.727Z,9.40
2022-10-11T03:45:52.717Z,9.31
2022-10-11T03:48:24.427Z,9.45
2022-10-11T03:50:57.830Z,9.40
2022-10-11T03:53:32.246Z,9.42
2022-10-11T03:56:08.329Z,9.35
2022-10-11T03:58:41.489Z,9.18
2022-10-11T04:01:14.036Z,8.95
2022-10-11T04:03:45.759Z,9.22
2022-10-11T04:06:18.960Z,9.31
2022-10-11T04:08:53.468Z,9.55
2022-10-11T04:11:25.656Z,9.27
2022-10-11T04:13:57.540Z,9.12
2022-10-11T04:16:30.997Z,9.17
2022-10-11T04:19:02.668Z,9.59
2022-10-11T04:21:34.673Z,9.44
2022-10-11T04:24:09.437Z,9.13
2022-10-11T04:26:41.829Z,9.01
2022-10-11T04:29:13.476Z,9.32
2022-10-11T04:31:45.680Z,9.41
2022-10-11T04:34:17.576Z,9.20
2022-10-11T04:36:50.188Z,9.27
2022-10-11T04:39:24.546Z,9.40
2022-10-11T04:41:57.789Z,9.40
2022-10-11T04:44:32.419Z,9.13
2022-10-11T04:47:06.875Z,9.13
2022-10-11T04:49:38.352Z,8.91
2022-10-11T04:52:10.198Z,8.85
2022-10-11T04:54:44.393Z,9.12
2022-10-11T04:57:16.047Z,9.08
2022-10-11T04:59:50.167Z,9.32
2022-10-11T05:02:22.323Z,9.38
2022-10-11T05:04:54.244Z,9.47
2022-10-11T05:07:26.004Z,9.32
2022-10-11T05:09:59.968Z,9.16
2022-10-11T05:12:31.737Z,9.04
2022-10-11T05:15:03.477Z,8.74
2022-10-11T05:17:35.347Z,8.82
2022-10-11T05:20:07.477Z,8.67
2022-10-11T05:22:39.417Z,9.15
2022-10-11T05:25:13.978Z,8.87
2022-10-11T05:27:46.158Z,8.66
2022-10-11T05:30:17.816Z,9.13
2022-10-11T05:32:49.705Z,9.20
2022-10-11T05:35:21.299Z,9.27
2022-10-11T05:37:55.979Z,8.98
2022-10-11T05:40:30.203Z,8.94
2022-10-11T05:43:02.199Z,8.98
2022-10-11T05:45:35.379Z,9.38
2022-10-11T05:48:08.061Z,10.02
2022-10-11T05:50:40.578Z,10.10
2022-10-11T05:53:15.226Z,10.19
2022-10-11T05:55:50.259Z,10.23
2022-10-11T05:58:22.243Z,9.81
2022-10-11T06:00:53.932Z,9.93
2022-10-11T06:03:26.119Z,9.87
2022-10-11T06:06:00.260Z,8.98
2022-10-11T06:08:32.200Z,9.06
2022-10-11T06:11:14.016Z,9.52
2022-10-11T06:13:46.316Z,9.90
2022-10-11T06:16:18.358Z,9.97
2022-10-11T06:18:50.338Z,9.97
2022-10-11T06:21:21.798Z,9.95
2022-10-11T06:23:59.860Z,9.80
2022-10-11T06:26:35.826Z,9.78
2022-10-11T06:29:08.420Z,9.79
2022-10-11T06:31:40.742Z,9.92
2022-10-11T06:34:12.700Z,10.19
2022-10-11T06:36:44.314Z,10.41
2022-10-11T06:39:16.219Z,10.17
2022-10-11T06:41:50.318Z,10.24
2022-10-11T06:44:22.337Z,10.53
2022-10-11T06:46:54.367Z,10.14
2022-10-11T06:49:26.533Z,10.21
2022-10-11T06:51:58.458Z,10.19
2022-10-11T06:54:31.227Z,10.49
2022-10-11T06:57:07.420Z,10.03
2022-10-11T06:59:42.940Z,10.38
2022-10-11T07:02:15.220Z,10.05
2022-10-11T07:04:47.789Z,10.04
2022-10-11T07:07:20.059Z,9.92
2022-10-11T07:09:52.742Z,10.26
2022-10-11T07:12:29.219Z,10.16
2022-10-11T07:15:01.820Z,10.13
2022-10-11T07:17:34.112Z,10.29
2022-10-11T07:20:06.962Z,10.55
2022-10-11T07:22:39.430Z,10.72
2022-10-11T07:25:12.590Z,10.06
2022-10-11T07:27:49.691Z,10.37
2022-10-11T07:30:22.632Z,10.48
2022-10-11T07:32:54.793Z,10.64
2022-10-11T07:35:27.589Z,9.84
2022-10-11T07:37:59.900Z,9.98
2022-10-11T07:40:33.156Z,10.22
2022-10-11T07:43:09.909Z,10.39
2022-10-11T07:45:43.168Z,10.25
2022-10-11T07:48:15.470Z,10.25
2022-10-11T07:50:48.311Z,10.10
2022-10-11T07:53:20.469Z,10.33
2022-10-11T07:55:53.430Z,11.04
2022-10-11T07:58:28.469Z,10.89
2022-10-11T08:01:01.079Z,10.92
2022-10-11T08:03:33.609Z,11.43
2022-10-11T08:08:43.218Z,11.41
2022-10-11T08:11:23.926Z,11.69
2022-10-11T08:14:01.947Z,12.18
2022-10-11T08:16:48.232Z,11.95
2022-10-11T08:19:20.670Z,13.37
2022-10-11T08:21:54.600Z,13.42
2022-10-11T08:24:26.866Z,14.11
2022-10-11T08:26:59.987Z,13.57
2022-10-11T08:29:36.025Z,13.57
2022-10-11T08:32:12.229Z,13.91
2022-10-11T08:34:44.547Z,14.92
2022-10-11T08:37:17.113Z,16.68
2022-10-11T08:39:49.546Z,18.12
2022-10-11T08:42:32.507Z,19.75
2022-10-11T08:45:12.421Z,18.24
2022-10-11T08:47:48.394Z,15.70
2022-10-11T08:50:23.588Z,14.80
2022-10-11T08:53:01.106Z,15.73
2022-10-11T08:55:42.266Z,16.37
2022-10-11T08:58:20.826Z,17.80
2022-10-11T09:00:59.985Z,16.47
2022-10-11T09:03:41.682Z,17.38
2022-10-11T09:06:24.745Z,16.80
2022-10-11T09:09:16.028Z,17.61
2022-10-11T09:12:00.707Z,17.62
2022-10-11T09:15:00.633Z,16.37
2022-10-11T09:17:50.745Z,17.12
2022-10-11T09:20:48.987Z,18.52
2022-10-11T09:23:35.238Z,18.03
2022-10-11T09:26:10.195Z,18.20
2022-10-11T09:29:00.889Z,19.36
2022-10-11T09:31:36.472Z,18.98
2022-10-11T09:34:16.034Z,18.16
2022-10-11T09:36:55.992Z,18.86
2022-10-11T09:39:35.766Z,19.97
2022-10-11T09:42:10.992Z,19.00
2022-10-11T09:44:49.073Z,18.52
2022-10-11T09:47:24.000Z,20.22
2022-10-11T09:50:05.355Z,20.10
2022-10-11T09:52:38.112Z,19.73
2022-10-11T09:55:10.993Z,18.53
2022-10-11T09:57:44.081Z,16.35
2022-10-11T10:00:24.871Z,17.62
2022-10-11T10:02:59.156Z,17.36
2022-10-11T10:05:37.151Z,16.91
2022-10-11T10:08:27.192Z,17.27
2022-10-11T10:11:04.792Z,15.94
2022-10-11T10:13:50.283Z,17.71
2022-10-11T10:16:27.270Z,17.51
2022-10-11T10:19:03.796Z,17.68
2022-10-11T10:21:43.250Z,17.97
2022-10-11T10:24:24.149Z,19.10
2022-10-11T10:27:10.751Z,19.18
2022-10-11T10:29:44.032Z,18.83
2022-10-11T10:32:28.706Z,19.16
2022-10-11T10:35:17.955Z,18.01
2022-10-11T10:38:04.139Z,18.61
2022-10-11T10:40:42.423Z,18.84
2022-10-11T10:43:21.940Z,18.51
2022-10-11T10:46:09.040Z,18.58
2022-10-11T10:49:28.783Z,19.03
2022-10-11T10:51:49.804Z,17.72
2022-10-11T10:54:36.473Z,17.91
2022-10-11T10:57:20.176Z,18.69
2022-10-11T11:00:07.676Z,17.84
2022-10-11T11:02:49.862Z,18.84
2022-10-11T11:05:40.805Z,19.23
2022-10-11T11:08:22.701Z,18.82
2022-10-11T11:11:08.158Z,16.90
2022-10-11T11:13:48.724Z,17.18
2022-10-11T11:16:35.641Z,17.17
2022-10-11T11:19:17.509Z,17.76
2022-10-11T11:21:58.562Z,17.79
2022-10-11T11:24:42.774Z,17.24
2022-10-11T11:27:29.243Z,17.04
2022-10-11T11:30:08.082Z,17.56
2022-10-11T11:32:50.928Z,17.64
2022-10-11T11:35:31.047Z,17.01
2022-10-11T11:38:07.790Z,17.61
2022-10-11T11:40:47.294Z,17.89
2022-10-11T11:43:29.197Z,16.40
2022-10-11T11:46:13.960Z,16.80
2022-10-11T11:48:47.538Z,16.68
2022-10-11T11:51:22.429Z,16.76
2022-10-11T11:54:08.529Z,16.30
2022-10-11T11:56:54.303Z,16.51
2022-10-11T11:59:59.379Z,16.79
2022-10-11T12:03:01.649Z,16.95
2022-10-11T12:05:39.224Z,16.12
2022-10-11T12:08:27.635Z,16.31
2022-10-11T12:11:04.862Z,15.99
2022-10-11T12:13:38.861Z,16.22
2022-10-11T12:16:18.490Z,16.60
2022-10-11T12:18:54.785Z,16.54
2022-10-11T12:21:33.629Z,16.03
2022-10-11T12:24:14.485Z,16.20
2022-10-11T12:26:47.776Z,16.65
2022-10-11T12:29:58.138Z,15.70
2022-10-11T12:33:05.897Z,16.29
2022-10-11T12:36:01.479Z,15.57
2022-10-11T12:38:37.939Z,15.82
2022-10-11T12:41:40.767Z,16.16
2022-10-11T12:44:23.496Z,16.74
2022-10-11T12:47:24.180Z,16.51
2022-10-11T12:50:13.286Z,14.96
2022-10-11T12:53:04.052Z,15.95
2022-10-11T12:55:54.785Z,15.72
2022-10-11T12:58:38.695Z,16.23
2022-10-11T13:01:23.228Z,15.75
2022-10-11T13:04:02.583Z,16.05
2022-10-11T13:06:41.176Z,15.80
2022-10-11T13:09:21.716Z,15.73
2022-10-11T13:11:57.388Z,15.01
2022-10-11T13:14:34.469Z,15.34
2022-10-11T13:17:17.836Z,15.99
2022-10-11T13:19:53.893Z,15.20
2022-10-11T13:22:28.606Z,14.95
2022-10-11T13:25:00.293Z,14.92
2022-10-11T13:27:31.688Z,14.49
2022-10-11T13:30:06.538Z,14.83
2022-10-11T13:32:39.923Z,14.76
2022-10-11T13:35:23.830Z,14.84
2022-10-11T13:37:59.614Z,14.49
2022-10-11T13:40:34.254Z,14.59
2022-10-11T13:43:09.012Z,14.39
2022-10-11T13:45:42.336Z,14.74
2022-10-11T13:48:19.772Z,14.67
2022-10-11T13:51:10.493Z,15.37
2022-10-11T13:54:00.494Z,15.78
2022-10-11T13:56:36.476Z,15.72
2022-10-11T13:59:08.826Z,15.74
2022-10-11T14:01:44.569Z,15.80
2022-10-11T14:04:19.695Z,16.04
2022-10-11T14:06:58.658Z,16.19
2022-10-11T14:09:36.413Z,16.34
2022-10-11T14:12:32.457Z,16.26
2022-10-11T14:15:06.534Z,15.53
2022-10-11T14:17:46.415Z,14.81
2022-10-11T14:20:23.457Z,14.95
2022-10-11T14:22:57.414Z,14.81
2022-10-11T14:25:33.094Z,15.16
2022-10-11T14:28:16.341Z,15.38
2022-10-11T14:30:49.014Z,15.35
2022-10-11T14:33:22.255Z,14.86
2022-10-11T14:35:54.857Z,14.91
2022-10-11T14:38:27.700Z,14.64
2022-10-11T14:41:02.894Z,14.23
2022-10-11T14:43:35.817Z,14.29
2022-10-11T14:46:08.631Z,14.65
2022-10-11T14:48:54.901Z,14.69
2022-10-11T14:51:34.374Z,14.42
2022-10-11T14:54:07.493Z,14.79
2022-10-11T14:56:42.853Z,15.02
2022-10-11T14:59:18.535Z,14.95
2022-10-11T15:01:54.151Z,15.00
2022-10-11T15:04:29.253Z,15.06
2022-10-11T15:07:02.400Z,14.93
2022-10-11T15:09:35.645Z,14.96
2022-10-11T15:12:12.745Z,14.86
2022-10-11T15:14:45.756Z,14.53
2022-10-11T15:17:18.316Z,14.49
2022-10-11T15:19:51.358Z,14.56
2022-10-11T15:22:23.834Z,14.57
2022-10-11T15:25:17.259Z,14.63
2022-10-11T15:27:51.702Z,14.65
2022-10-11T15:30:27.525Z,14.63
2022-10-11T15:32:59.394Z,14.41
2022-10-11T15:35:34.467Z,14.42
2022-10-11T15:38:06.765Z,14.22
2022-10-11T15:40:49.078Z,14.14
2022-10-11T15:43:25.168Z,14.30
2022-10-11T15:46:05.090Z,14.19
2022-10-11T15:48:44.366Z,14.00
2022-10-11T15:51:20.378Z,14.01
2022-10-11T15:54:01.254Z,13.87
2022-10-11T15:56:46.165Z,13.73
2022-10-11T15:59:28.499Z,13.65
2022-10-11T16:02:05.584Z,13.56
2022-10-11T16:04:52.950Z,13.47
2022-10-11T16:07:41.003Z,13.30
2022-10-11T16:10:15.573Z,13.21
2022-10-11T16:13:16.466Z,13.14
2022-10-11T16:15:58.836Z,13.07
2022-10-11T16:18:36.989Z,13.07
2022-10-11T16:21:32.341Z,12.94
2022-10-11T16:24:13.844Z,12.84
2022-10-11T16:26:48.408Z,12.69
2022-10-11T16:29:20.727Z,12.67
2022-10-11T16:31:55.366Z,12.54
2022-10-11T16:34:27.648Z,12.47
2022-10-11T16:36:59.533Z,12.38
2022-10-11T16:39:31.995Z,12.25
2022-10-11T16:42:04.108Z,12.13
2022-10-11T16:44:38.824Z,11.96
2022-10-11T16:47:13.573Z,11.89
2022-10-11T16:49:46.049Z,11.78
2022-10-11T16:52:17.990Z,11.67
2022-10-11T16:54:51.610Z,11.61
2022-10-11T16:57:23.752Z,11.53
2022-10-11T16:59:56.079Z,11.50
2022-10-11T17:02:32.573Z,11.56
2022-10-11T17:05:05.063Z,11.43
2022-10-11T17:07:37.163Z,11.40
2022-10-11T17:10:10.978Z,11.27
2022-10-11T17:12:47.747Z,11.13
2022-10-11T17:15:23.354Z,11.10
2022-10-11T17:17:58.974Z,10.96
2022-10-11T17:20:31.237Z,10.99
2022-10-11T17:23:03.395Z,10.93
2022-10-11T17:25:35.655Z,10.93
2022-10-11T17:28:07.558Z,10.79
2022-10-11T17:30:41.938Z,10.77
2022-10-11T17:33:16.436Z,10.71
2022-10-11T17:35:48.779Z,10.68
2022-10-11T17:38:21.157Z,10.62
2022-10-11T17:41:02.177Z,10.63
2022-10-11T17:43:34.936Z,10.58
2022-10-11T17:46:09.657Z,10.57
2022-10-11T17:48:45.716Z,10.54
2022-10-11T17:51:20.416Z,10.44
2022-10-11T17:53:53.857Z,10.43
2022-10-11T17:56:30.417Z,10.40
2022-10-11T17:59:04.334Z,10.32
2022-10-11T18:01:36.496Z,10.38
2022-10-11T18:04:16.846Z,10.26
2022-10-11T18:06:51.057Z,10.27
2022-10-11T18:09:25.478Z,10.22
2022-10-11T18:11:57.798Z,10.19
2022-10-11T18:14:29.797Z,10.19
2022-10-11T18:17:01.996Z,10.10
2022-10-11T18:19:36.572Z,10.11
2022-10-11T18:22:08.870Z,10.06
2022-10-11T18:24:41.708Z,10.08
2022-10-11T18:27:14.072Z,10.04
2022-10-11T18:29:45.873Z,10.03
2022-10-11T18:32:21.170Z,9.88
2022-10-11T18:34:56.092Z,9.89
2022-10-11T18:37:28.870Z,9.82
2022-10-11T18:40:00.790Z,9.78
2022-10-11T18:42:33.171Z,9.81
2022-10-11T18:45:04.990Z,9.76
2022-10-11T18:47:37.309Z,9.71
2022-10-11T18:50:12.808Z,9.69
2022-10-11T18:52:45.557Z,9.67
2022-10-11T18:55:17.830Z,9.56
2022-10-11T18:57:50.097Z,9.61
2022-10-11T19:00:40.084Z,9.54
2022-10-11T19:03:13.417Z,9.55
2022-10-11T19:05:47.929Z,9.49
2022-10-11T19:08:20.148Z,9.53
2022-10-11T19:10:52.196Z,9.40
2022-10-11T19:13:24.412Z,9.38
2022-10-11T19:15:56.229Z,9.32
2022-10-11T19:18:28.709Z,9.25
2022-10-11T19:21:04.609Z,9.38
2022-10-11T19:23:39.487Z,9.43
2022-10-11T19:26:15.929Z,9.31
2022-10-11T19:28:51.066Z,9.30
2022-10-11T19:31:23.030Z,9.28
2022-10-11T19:33:55.849Z,9.33
2022-10-11T19:36:36.272Z,9.14
2022-10-11T19:39:09.554Z,9.06
2022-10-11T19:41:41.431Z,9.13
2022-10-11T19:44:14.290Z,9.11
2022-10-11T19:46:52.671Z,9.08
2022-10-11T19:49:26.130Z,9.07
2022-10-11T19:52:01.632Z,9.02
2022-10-11T19:54:35.029Z,9.12
2022-10-11T19:57:08.991Z,9.02
2022-10-11T19:59:41.208Z,8.99
2022-10-11T20:02:13.658Z,9.06
2022-10-11T20:04:52.375Z,9.02
2022-10-11T20:07:27.790Z,9.04
2022-10-11T20:10:00.559Z,9.01
2022-10-11T20:12:32.683Z,8.99
2022-10-11T20:15:05.008Z,9.02
2022-10-11T20:17:48.956Z,8.91
2022-10-11T20:20:22.409Z,8.90
2022-10-11T20:22:57.111Z,8.91
2022-10-11T20:25:29.437Z,8.92
2022-10-11T20:28:01.328Z,8.94
2022-10-11T20:30:33.610Z,8.91
2022-10-11T20:33:05.511Z,8.91
2022-10-11T20:35:39.931Z,9.01
2022-10-11T20:38:14.510Z,8.91
2022-10-11T20:40:46.648Z,8.90
2022-10-11T20:43:18.608Z,8.91
2022-10-11T20:46:02.049Z,8.87
2022-10-11T20:48:34.813Z,8.83
2022-10-11T20:51:07.713Z,8.79
2022-10-11T20:53:44.248Z,8.75
2022-10-11T20:56:18.618Z,8.73
2022-10-11T20:58:53.372Z,8.71
2022-10-11T21:01:27.747Z,8.77
2022-10-11T21:04:01.538Z,8.69
2022-10-11T21:06:35.692Z,8.46
2022-10-11T21:09:12.664Z,8.45
2022-10-11T21:11:48.589Z,8.42
2022-10-11T21:14:20.470Z,8.51
2022-10-11T21:16:52.748Z,8.36
2022-10-11T21:19:24.651Z,8.60
2022-10-11T21:21:56.833Z,8.59
2022-10-11T21:24:31.369Z,8.31
2022-10-11T21:27:03.650Z,8.15
2022-10-11T21:29:35.488Z,8.13
2022-10-11T21:32:12.016Z,8.05
2022-10-11T21:34:46.131Z,8.13
2022-10-11T21:37:18.480Z,8.10
2022-10-11T21:39:53.110Z,8.01
2022-10-11T21:42:29.430Z,7.94
2022-10-11T21:45:01.578Z,7.90
2022-10-11T21:47:38.106Z,7.85
2022-10-11T21:50:11.309Z,7.88
2022-10-11T21:52:43.948Z,7.91
2022-10-11T21:55:18.909Z,7.99
2022-10-11T21:57:51.430Z,8.09
2022-10-11T22:00:23.628Z,7.97
2022-10-11T22:02:55.990Z,7.97
2022-10-11T22:05:28.297Z,7.99
2022-10-11T22:08:00.749Z,7.92
2022-10-11T22:10:35.890Z,7.88
2022-10-11T22:13:08.391Z,8.00
2022-10-11T22:15:40.871Z,7.93
2022-10-11T22:18:13.450Z,8.02
2022-10-11T22:20:45.432Z,7.93
2022-10-11T22:23:19.452Z,7.90
2022-10-11T22:25:54.430Z,7.93
2022-10-11T22:28:26.836Z,7.97
2022-10-11T22:30:59.208Z,7.99
2022-10-11T22:33:31.916Z,7.95
2022-10-11T22:36:05.933Z,7.89
2022-10-11T22:38:39.330Z,7.94
2022-10-11T22:41:15.029Z,7.86
2022-10-11T22:43:47.789Z,7.76
2022-10-11T22:46:20.126Z,7.95
2022-10-11T22:48:52.692Z,7.70
2022-10-11T22:51:25.029Z,7.62
2022-10-11T22:53:57.489Z,7.76
2022-10-11T22:56:32.458Z,7.86
2022-10-11T22:59:04.772Z,7.60
2022-10-11T23:01:36.678Z,7.59
2022-10-11T23:04:09.110Z,7.58
2022-10-11T23:06:41.191Z,7.58
2022-10-11T23:09:13.797Z,7.48
2022-10-11T23:11:48.730Z,7.54
2022-10-11T23:14:21.088Z,7.51
2022-10-11T23:16:54.971Z,7.44
2022-10-11T23:19:27.370Z,7.33
2022-10-11T23:21:59.628Z,7.38
2022-10-11T23:24:32.568Z,7.52
2022-10-11T23:27:07.789Z,7.27
2022-10-11T23:29:41.408Z,7.30
2022-10-11T23:32:14.731Z,7.32
2022-10-11T23:34:47.312Z,7.34
2022-10-11T23:37:19.530Z,7.37
2022-10-11T23:39:52.228Z,7.31
2022-10-11T23:42:26.988Z,7.34
2022-10-11T23:44:59.510Z,7.32
2022-10-11T23:47:31.550Z,7.36
2022-10-11T23:50:04.214Z,7.28
2022-10-11T23:52:36.370Z,7.24
2022-10-11T23:55:09.435Z,7.34
2022-10-11T23:57:44.470Z,7.34
